createdAt,value
2018-06-11T00:02:23.919Z,19.10
2018-06-11T00:04:52.485Z,19.06
2018-06-11T00:07:21.034Z,19.11
2018-06-11T00:09:49.646Z,19.13
2018-06-11T00:12:18.191Z,19.16
2018-06-11T00:14:46.791Z,19.02
2018-06-11T00:17:15.341Z,18.86
2018-06-11T00:19:50.468Z,18.96
2018-06-11T00:22:19.018Z,18.96
2018-06-11T00:24:47.598Z,18.83
2018-06-11T00:27:16.155Z,18.88
2018-06-11T00:29:45.292Z,18.95
2018-06-11T00:32:13.837Z,18.96
2018-06-11T00:34:42.421Z,18.81
2018-06-11T00:37:10.969Z,18.80
2018-06-11T00:39:39.557Z,18.82
2018-06-11T00:42:08.172Z,18.88
2018-06-11T00:44:36.748Z,18.92
2018-06-11T00:47:05.325Z,18.77
2018-06-11T00:49:33.955Z,18.88
2018-06-11T00:52:02.879Z,18.92
2018-06-11T00:54:31.478Z,18.96
2018-06-11T00:57:00.023Z,19.03
2018-06-11T00:59:28.605Z,18.96
2018-06-11T01:01:57.174Z,19.01
2018-06-11T01:04:25.722Z,18.95
2018-06-11T01:06:54.310Z,18.92
2018-06-11T01:09:22.865Z,18.95
2018-06-11T01:11:51.449Z,18.91
2018-06-11T01:14:20.011Z,18.80
2018-06-11T01:16:48.594Z,18.75
2018-06-11T01:19:17.168Z,18.80
2018-06-11T01:21:45.755Z,18.76
2018-06-11T01:24:14.305Z,18.67
2018-06-11T01:26:42.897Z,18.62
2018-06-11T01:29:11.443Z,18.70
2018-06-11T01:31:40.029Z,18.70
2018-06-11T01:34:08.596Z,18.76
2018-06-11T01:36:37.197Z,18.79
2018-06-11T01:39:07.578Z,18.85
2018-06-11T01:41:36.297Z,18.80
2018-06-11T01:44:04.854Z,18.77
2018-06-11T01:46:33.438Z,18.72
2018-06-11T01:49:01.991Z,18.76
2018-06-11T01:51:30.578Z,18.84
2018-06-11T01:53:59.123Z,18.74
2018-06-11T01:56:27.700Z,18.78
2018-06-11T01:58:56.285Z,18.85
2018-06-11T02:01:24.873Z,18.85
2018-06-11T02:03:53.410Z,18.81
2018-06-11T02:06:21.984Z,18.82
2018-06-11T02:08:50.553Z,18.79
2018-06-11T02:11:19.132Z,18.72
2018-06-11T02:13:47.708Z,18.86
2018-06-11T02:16:16.290Z,18.80
2018-06-11T02:18:45.668Z,18.70
2018-06-11T02:21:14.247Z,18.75
2018-06-11T02:23:42.788Z,18.77
2018-06-11T02:26:11.374Z,18.73
2018-06-11T02:28:39.929Z,18.61
2018-06-11T02:31:08.497Z,18.70
2018-06-11T02:33:37.036Z,18.59
2018-06-11T02:36:05.674Z,18.60
2018-06-11T02:38:34.240Z,18.64
2018-06-11T02:41:02.901Z,18.64
2018-06-11T02:43:31.443Z,18.72
2018-06-11T02:46:00.042Z,18.71
2018-06-11T02:48:28.582Z,18.69
2018-06-11T02:50:57.192Z,18.62
2018-06-11T02:53:25.777Z,18.57
2018-06-11T02:55:54.335Z,18.56
2018-06-11T02:58:23.236Z,18.52
2018-06-11T03:00:51.805Z,18.49
2018-06-11T03:03:20.396Z,18.45
2018-06-11T03:05:48.986Z,18.46
2018-06-11T03:08:17.588Z,18.26
2018-06-11T03:10:46.167Z,18.40
2018-06-11T03:13:15.852Z,18.30
2018-06-11T03:15:44.418Z,18.32
2018-06-11T03:18:13.019Z,18.24
2018-06-11T03:20:41.573Z,18.36
2018-06-11T03:23:10.209Z,18.26
2018-06-11T03:25:38.762Z,18.22
2018-06-11T03:28:07.373Z,18.16
2018-06-11T03:30:35.950Z,18.20
2018-06-11T03:33:04.553Z,18.24
2018-06-11T03:35:33.129Z,18.12
2018-06-11T03:38:01.713Z,18.05
2018-06-11T03:40:30.271Z,18.02
2018-06-11T03:42:58.877Z,18.16
2018-06-11T03:45:27.433Z,18.07
2018-06-11T03:47:56.016Z,17.84
2018-06-11T03:50:24.577Z,17.87
2018-06-11T03:52:53.190Z,17.93
2018-06-11T03:55:21.765Z,17.90
2018-06-11T03:57:50.369Z,18.08
2018-06-11T04:00:18.964Z,18.00
2018-06-11T04:02:47.545Z,18.00
2018-06-11T04:05:16.085Z,17.99
2018-06-11T04:07:44.722Z,18.06
2018-06-11T04:10:13.285Z,18.26
2018-06-11T04:12:41.873Z,18.27
2018-06-11T04:15:10.429Z,18.20
2018-06-11T04:17:39.034Z,18.20
2018-06-11T04:20:07.607Z,18.32
2018-06-11T04:22:36.202Z,18.37
2018-06-11T04:25:04.753Z,18.38
2018-06-11T04:27:33.337Z,18.39
2018-06-11T04:30:01.903Z,18.32
2018-06-11T04:32:30.477Z,18.27
2018-06-11T04:34:59.020Z,18.26
2018-06-11T04:37:27.617Z,18.35
2018-06-11T04:39:56.216Z,18.37
2018-06-11T04:42:24.769Z,18.41
2018-06-11T04:44:53.349Z,18.53
2018-06-11T04:47:21.913Z,18.56
2018-06-11T04:49:53.795Z,18.66
2018-06-11T04:52:22.430Z,18.74
2018-06-11T04:54:51.024Z,18.83
2018-06-11T04:57:19.589Z,18.74
2018-06-11T04:59:48.194Z,18.94
2018-06-11T05:02:17.047Z,18.94
2018-06-11T05:04:49.706Z,18.99
2018-06-11T05:07:18.465Z,19.10
2018-06-11T05:09:47.122Z,19.21
2018-06-11T05:12:16.252Z,19.14
2018-06-11T05:14:44.857Z,19.09
2018-06-11T05:17:13.407Z,19.18
2018-06-11T05:19:43.513Z,19.17
2018-06-11T05:22:12.056Z,19.27
2018-06-11T05:24:40.626Z,19.30
2018-06-11T05:27:09.169Z,19.41
2018-06-11T05:29:37.730Z,19.30
2018-06-11T05:32:06.497Z,19.31
2018-06-11T05:34:35.181Z,19.32
2018-06-11T05:37:04.022Z,19.42
2018-06-11T05:39:32.592Z,19.57
2018-06-11T05:42:01.161Z,19.65
2018-06-11T05:44:29.720Z,19.72
2018-06-11T05:47:01.125Z,19.67
2018-06-11T05:49:29.693Z,19.79
2018-06-11T05:51:58.249Z,19.62
2018-06-11T05:54:26.810Z,19.70
2018-06-11T05:56:55.357Z,19.78
2018-06-11T05:59:23.952Z,19.82
2018-06-11T06:01:52.623Z,20.01
2018-06-11T06:04:21.195Z,20.07
2018-06-11T06:06:49.739Z,20.16
2018-06-11T06:09:18.335Z,20.12
2018-06-11T06:11:46.872Z,20.26
2018-06-11T06:14:17.252Z,20.17
2018-06-11T06:16:46.783Z,20.38
2018-06-11T06:19:16.814Z,20.49
2018-06-11T06:21:46.551Z,20.51
2018-06-11T06:24:15.131Z,20.51
2018-06-11T06:26:44.588Z,20.66
2018-06-11T06:29:13.133Z,20.62
2018-06-11T06:31:41.660Z,20.72
2018-06-11T06:34:10.285Z,20.77
2018-06-11T06:36:38.795Z,20.90
2018-06-11T06:39:09.142Z,20.95
2018-06-11T06:41:37.922Z,20.95
2018-06-11T06:44:06.510Z,21.04
2018-06-11T06:46:35.279Z,21.15
2018-06-11T06:49:03.855Z,21.24
2018-06-11T06:51:32.409Z,21.29
2018-06-11T06:54:00.954Z,21.20
2018-06-11T06:56:29.532Z,21.28
2018-06-11T06:58:58.112Z,21.31
2018-06-11T07:01:26.696Z,21.36
2018-06-11T07:03:55.255Z,21.40
2018-06-11T07:06:23.843Z,21.45
2018-06-11T07:08:52.388Z,21.52
2018-06-11T07:11:20.965Z,21.49
2018-06-11T07:13:49.518Z,21.55
2018-06-11T07:16:18.121Z,21.53
2018-06-11T07:18:46.742Z,21.50
2018-06-11T07:21:15.325Z,21.44
2018-06-11T07:23:43.876Z,21.56
2018-06-11T07:26:12.486Z,21.70
2018-06-11T07:28:41.060Z,21.75
2018-06-11T07:31:09.653Z,21.80
2018-06-11T07:33:38.233Z,21.88
2018-06-11T07:36:06.823Z,21.90
2018-06-11T07:38:35.653Z,21.98
2018-06-11T07:41:04.311Z,22.00
2018-06-11T07:43:32.827Z,21.85
2018-06-11T07:46:01.429Z,21.94
2018-06-11T07:48:30.030Z,22.18
2018-06-11T07:50:58.617Z,22.36
2018-06-11T07:53:27.182Z,22.54
2018-06-11T07:55:55.781Z,22.73
2018-06-11T07:58:24.345Z,22.70
2018-06-11T08:00:52.923Z,22.53
2018-06-11T08:03:21.484Z,22.42
2018-06-11T08:05:50.074Z,22.35
2018-06-11T08:08:18.623Z,22.27
2018-06-11T08:10:47.190Z,22.50
2018-06-11T08:13:16.809Z,22.60
2018-06-11T08:15:45.386Z,22.77
2018-06-11T08:18:13.936Z,22.90
2018-06-11T08:20:42.540Z,23.07
2018-06-11T08:23:11.094Z,23.32
2018-06-11T08:25:39.670Z,23.36
2018-06-11T08:28:08.229Z,23.35
2018-06-11T08:30:36.796Z,23.42
2018-06-11T08:33:05.409Z,23.41
2018-06-11T08:35:38.324Z,23.56
2018-06-11T08:38:07.129Z,23.46
2018-06-11T08:40:35.682Z,23.63
2018-06-11T08:43:04.230Z,23.33
2018-06-11T08:45:32.789Z,23.70
2018-06-11T08:48:01.323Z,24.06
2018-06-11T08:50:29.905Z,24.06
2018-06-11T08:52:58.466Z,24.18
2018-06-11T08:55:26.998Z,24.33
2018-06-11T08:57:55.588Z,24.43
2018-06-11T09:00:24.230Z,24.43
2018-06-11T09:02:52.794Z,24.81
2018-06-11T09:05:21.329Z,24.78
2018-06-11T09:07:49.893Z,24.99
2018-06-11T09:10:18.436Z,24.96
2018-06-11T09:12:47.946Z,24.86
2018-06-11T09:15:16.473Z,25.02
2018-06-11T09:17:45.033Z,24.56
2018-06-11T09:20:13.580Z,24.91
2018-06-11T09:22:42.172Z,25.09
2018-06-11T09:25:10.782Z,25.29
2018-06-11T09:27:39.373Z,25.48
2018-06-11T09:30:07.921Z,25.42
2018-06-11T09:32:36.485Z,25.59
2018-06-11T09:35:05.029Z,25.41
2018-06-11T09:37:33.619Z,25.78
2018-06-11T09:40:02.158Z,25.82
2018-06-11T09:42:30.729Z,25.75
2018-06-11T09:44:59.280Z,25.76
2018-06-11T09:47:27.836Z,25.64
2018-06-11T09:49:56.381Z,25.80
2018-06-11T09:52:24.941Z,25.91
2018-06-11T09:54:53.468Z,25.99
2018-06-11T09:57:22.025Z,25.80
2018-06-11T09:59:50.601Z,26.19
2018-06-11T10:02:19.188Z,26.16
2018-06-11T10:04:48.033Z,25.71
2018-06-11T10:07:16.629Z,25.76
2018-06-11T10:09:45.173Z,25.54
2018-06-11T10:12:13.794Z,26.08
2018-06-11T10:14:42.357Z,25.79
2018-06-11T10:17:10.959Z,25.86
2018-06-11T10:19:39.512Z,25.92
2018-06-11T10:22:08.164Z,25.96
2018-06-11T10:24:36.732Z,26.21
2018-06-11T10:27:05.328Z,26.13
2018-06-11T10:29:33.852Z,27.07
2018-06-11T10:32:02.409Z,26.48
2018-06-11T10:34:30.936Z,26.55
2018-06-11T10:36:59.526Z,26.24
2018-06-11T10:39:28.050Z,26.66
2018-06-11T10:41:56.621Z,26.37
2018-06-11T10:44:25.181Z,26.50
2018-06-11T10:46:53.717Z,26.61
2018-06-11T10:49:22.269Z,26.57
2018-06-11T10:51:50.801Z,26.22
2018-06-11T10:54:19.369Z,25.94
2018-06-11T10:56:48.855Z,25.88
2018-06-11T10:59:17.479Z,25.79
2018-06-11T11:01:46.024Z,25.73
2018-06-11T11:04:14.651Z,24.71
2018-06-11T11:06:43.223Z,24.13
2018-06-11T11:09:11.826Z,23.78
2018-06-11T11:11:40.437Z,23.75
2018-06-11T11:14:09.033Z,23.42
2018-06-11T11:16:37.572Z,22.80
2018-06-11T11:19:06.329Z,22.35
2018-06-11T11:21:34.899Z,22.18
2018-06-11T11:24:03.494Z,21.90
2018-06-11T11:26:32.370Z,21.98
2018-06-11T11:29:00.958Z,21.60
2018-06-11T11:31:30.401Z,21.85
2018-06-11T11:33:58.986Z,20.93
2018-06-11T11:36:29.521Z,19.20
2018-06-11T11:38:58.136Z,18.46
2018-06-11T11:41:26.677Z,18.13
2018-06-11T11:43:55.253Z,17.69
2018-06-11T11:46:23.796Z,18.09
2018-06-11T11:48:52.388Z,18.34
2018-06-11T11:51:20.942Z,18.31
2018-06-11T11:53:49.526Z,18.43
2018-06-11T11:56:19.115Z,18.72
2018-06-11T11:58:47.737Z,18.72
2018-06-11T12:01:16.277Z,18.72
2018-06-11T12:03:44.860Z,18.88
2018-06-11T12:06:13.424Z,18.83
2018-06-11T12:08:42.041Z,18.89
2018-06-11T12:11:10.601Z,18.86
2018-06-11T12:13:40.614Z,18.75
2018-06-11T12:16:12.235Z,18.97
2018-06-11T12:18:42.623Z,19.01
2018-06-11T12:21:13.560Z,19.17
2018-06-11T12:23:42.232Z,19.33
2018-06-11T12:26:15.027Z,19.39
2018-06-11T12:28:46.297Z,19.31
2018-06-11T12:31:14.972Z,19.49
2018-06-11T12:33:43.963Z,19.50
2018-06-11T12:36:12.533Z,19.65
2018-06-11T12:38:45.302Z,19.53
2018-06-11T12:41:19.033Z,19.55
2018-06-11T12:43:51.065Z,19.64
2018-06-11T12:46:30.802Z,19.81
2018-06-11T12:49:15.012Z,19.96
2018-06-11T12:51:55.899Z,19.54
2018-06-11T12:54:38.613Z,19.35
2018-06-11T12:57:19.714Z,19.33
2018-06-11T12:59:59.891Z,19.48
2018-06-11T13:02:40.924Z,19.57
2018-06-11T13:05:19.660Z,19.52
2018-06-11T13:07:59.590Z,19.65
2018-06-11T13:10:37.065Z,19.65
2018-06-11T13:13:19.049Z,19.59
2018-06-11T13:15:55.561Z,19.42
2018-06-11T13:18:34.211Z,19.25
2018-06-11T13:21:12.065Z,19.34
2018-06-11T13:23:50.284Z,19.28
2018-06-11T13:26:31.791Z,19.05
2018-06-11T13:29:14.321Z,18.78
2018-06-11T13:31:52.521Z,18.85
2018-06-11T13:34:32.027Z,18.26
2018-06-11T13:37:10.526Z,18.43
2018-06-11T13:39:54.857Z,18.39
2018-06-11T13:42:38.968Z,18.49
2018-06-11T13:45:15.389Z,18.50
2018-06-11T13:47:43.957Z,18.52
2018-06-11T13:50:17.242Z,18.45
2018-06-11T13:52:45.800Z,18.16
2018-06-11T13:55:14.382Z,18.20
2018-06-11T13:57:42.984Z,18.33
2018-06-11T14:00:11.607Z,18.39
2018-06-11T14:02:40.224Z,18.51
2018-06-11T14:05:08.808Z,18.56
2018-06-11T14:07:37.372Z,18.63
2018-06-11T14:10:05.961Z,18.63
2018-06-11T14:12:34.497Z,18.75
2018-06-11T14:15:03.115Z,18.71
2018-06-11T14:17:31.673Z,18.61
2018-06-11T14:20:00.265Z,18.69
2018-06-11T14:22:28.881Z,18.59
2018-06-11T14:24:57.493Z,18.49
2018-06-11T14:27:26.040Z,18.38
2018-06-11T14:29:54.643Z,18.24
2018-06-11T14:32:23.256Z,17.90
2018-06-11T14:35:04.330Z,17.91
2018-06-11T14:40:34.274Z,18.02
2018-06-11T14:43:22.828Z,17.81
2018-06-11T14:46:00.488Z,18.08
2018-06-11T14:48:44.625Z,18.14
2018-06-11T14:51:30.439Z,17.99
2018-06-11T14:54:19.717Z,17.89
2018-06-11T14:57:04.452Z,17.82
2018-06-11T14:59:49.955Z,18.19
2018-06-11T15:02:23.316Z,18.23
2018-06-11T15:04:58.473Z,18.25
2018-06-11T15:07:27.713Z,18.25
2018-06-11T15:09:56.242Z,18.33
2018-06-11T15:12:24.849Z,18.39
2018-06-11T15:14:53.378Z,18.42
2018-06-11T15:17:21.942Z,18.43
2018-06-11T15:20:07.361Z,18.59
2018-06-11T15:22:54.119Z,18.49
2018-06-11T15:25:23.681Z,18.39
2018-06-11T15:27:59.088Z,18.54
2018-06-11T15:30:28.693Z,18.66
2018-06-11T15:32:59.821Z,18.58
2018-06-11T15:35:32.008Z,18.50
2018-06-11T15:38:00.709Z,18.46
2018-06-11T15:40:29.246Z,18.63
2018-06-11T15:43:04.065Z,18.72
2018-06-11T15:45:32.680Z,18.70
2018-06-11T15:48:01.269Z,18.54
2018-06-11T15:50:29.833Z,18.58
2018-06-11T15:52:58.422Z,18.72
2018-06-11T15:55:32.244Z,18.76
2018-06-11T15:58:00.836Z,18.73
2018-06-11T16:00:29.407Z,18.76
2018-06-11T16:02:58.175Z,18.91
2018-06-11T16:05:27.058Z,18.96
2018-06-11T16:07:55.672Z,19.04
2018-06-11T16:10:24.247Z,18.88
2018-06-11T16:12:52.813Z,18.95
2018-06-11T16:15:22.045Z,18.97
2018-06-11T16:17:50.617Z,18.63
2018-06-11T16:20:19.162Z,18.73
2018-06-11T16:22:47.729Z,18.78
2018-06-11T16:25:16.262Z,18.88
2018-06-11T16:27:44.879Z,18.99
2018-06-11T16:30:13.407Z,19.03
2018-06-11T16:32:43.914Z,18.91
2018-06-11T16:35:12.467Z,18.99
2018-06-11T16:37:41.027Z,18.93
2018-06-11T16:40:09.568Z,18.95
2018-06-11T16:42:38.127Z,18.83
2018-06-11T16:45:07.047Z,18.91
2018-06-11T16:47:35.617Z,18.96
2018-06-11T16:50:04.233Z,18.88
2018-06-11T16:52:32.757Z,18.78
2018-06-11T16:55:01.356Z,18.86
2018-06-11T16:57:29.909Z,18.88
2018-06-11T16:59:58.530Z,18.97
2018-06-11T17:02:27.085Z,19.04
2018-06-11T17:04:55.658Z,18.95
2018-06-11T17:07:24.200Z,19.07
2018-06-11T17:09:52.817Z,19.00
2018-06-11T17:12:27.375Z,19.00
2018-06-11T17:14:57.469Z,19.06
2018-06-11T17:17:26.076Z,18.98
2018-06-11T17:20:00.055Z,18.96
2018-06-11T17:22:28.635Z,18.98
2018-06-11T17:24:57.305Z,19.07
2018-06-11T17:27:25.970Z,19.04
2018-06-11T17:29:54.585Z,19.02
2018-06-11T17:32:23.145Z,19.11
2018-06-11T17:34:52.331Z,19.13
2018-06-11T17:37:20.892Z,19.10
2018-06-11T17:39:49.514Z,19.01
2018-06-11T17:42:18.062Z,18.89
2018-06-11T17:44:49.086Z,18.87
2018-06-11T17:47:17.636Z,18.88
2018-06-11T17:49:46.549Z,18.97
2018-06-11T17:52:21.997Z,18.83
2018-06-11T17:54:58.135Z,18.74
2018-06-11T17:57:28.161Z,18.72
2018-06-11T18:00:05.595Z,18.64
2018-06-11T18:02:39.063Z,18.78
2018-06-11T18:05:11.825Z,18.90
2018-06-11T18:07:40.585Z,18.82
2018-06-11T18:10:11.371Z,18.77
2018-06-11T18:12:40.017Z,18.85
2018-06-11T18:15:08.590Z,18.87
2018-06-11T18:17:38.758Z,18.89
2018-06-11T18:20:08.495Z,18.91
2018-06-11T18:22:37.121Z,18.85
2018-06-11T18:25:05.716Z,18.94
2018-06-11T18:27:42.284Z,18.94
2018-06-11T18:30:12.179Z,18.98
2018-06-11T18:32:41.073Z,18.91
2018-06-11T18:35:09.719Z,18.92
2018-06-11T18:37:38.240Z,18.96
2018-06-11T18:40:09.273Z,18.97
2018-06-11T18:42:39.035Z,18.94
2018-06-11T18:45:08.336Z,18.81
2018-06-11T18:47:48.536Z,18.76
2018-06-11T18:50:17.333Z,18.85
2018-06-11T18:52:45.868Z,18.69
2018-06-11T18:55:18.389Z,18.61
2018-06-11T18:57:47.101Z,18.79
2018-06-11T19:00:15.692Z,18.88
2018-06-11T19:05:53.383Z,18.74
2018-06-11T19:11:03.517Z,18.75
2018-06-11T19:13:32.065Z,18.62
2018-06-11T19:16:00.681Z,18.62
2018-06-11T19:18:29.217Z,18.54
2018-06-11T19:20:57.864Z,18.38
2018-06-11T19:23:36.175Z,18.34
2018-06-11T19:26:15.387Z,18.16
2018-06-11T19:28:56.992Z,18.32
2018-06-11T19:31:43.052Z,18.28
2018-06-11T19:34:25.181Z,18.19
2018-06-11T19:37:05.797Z,18.36
2018-06-11T19:39:43.267Z,18.37
2018-06-11T19:42:23.775Z,18.40
2018-06-11T19:45:07.064Z,18.37
2018-06-11T19:47:51.388Z,18.36
2018-06-11T19:50:37.190Z,18.26
2018-06-11T19:53:19.425Z,18.25
2018-06-11T19:55:50.421Z,18.29
2018-06-11T19:58:19.022Z,18.28
2018-06-11T20:00:47.552Z,18.06
2018-06-11T20:03:16.107Z,18.12
2018-06-11T20:05:44.705Z,18.12
2018-06-11T20:08:13.277Z,18.17
2018-06-11T20:10:41.814Z,18.15
2018-06-11T20:13:10.973Z,18.00
2018-06-11T20:15:39.534Z,17.94
2018-06-11T20:18:08.302Z,17.83
2018-06-11T20:20:36.905Z,17.95
2018-06-11T20:23:05.502Z,17.91
2018-06-11T20:25:34.061Z,17.89
2018-06-11T20:28:02.697Z,17.94
2018-06-11T20:30:31.247Z,17.95
2018-06-11T20:32:59.809Z,17.98
2018-06-11T20:35:28.367Z,17.92
2018-06-11T20:37:56.911Z,17.79
2018-06-11T20:40:25.466Z,17.79
2018-06-11T20:42:54.208Z,17.71
2018-06-11T20:45:22.770Z,17.65
2018-06-11T20:47:51.293Z,17.64
2018-06-11T20:50:19.861Z,17.53
2018-06-11T20:52:48.396Z,17.52
2018-06-11T20:55:16.960Z,17.55
2018-06-11T20:57:45.516Z,17.59
2018-06-11T21:00:14.037Z,17.56
2018-06-11T21:02:49.626Z,17.58
2018-06-11T21:05:18.658Z,17.51
2018-06-11T21:07:47.237Z,17.60
2018-06-11T21:10:15.813Z,17.49
2018-06-11T21:12:48.584Z,17.51
2018-06-11T21:15:17.137Z,17.35
2018-06-11T21:17:45.722Z,17.27
2018-06-11T21:20:14.289Z,17.36
2018-06-11T21:22:42.876Z,17.38
2018-06-11T21:25:11.474Z,17.29
2018-06-11T21:27:40.054Z,17.15
2018-06-11T21:30:08.616Z,17.03
2018-06-11T21:32:37.489Z,17.17
2018-06-11T21:35:06.099Z,17.04
2018-06-11T21:37:34.725Z,17.11
2018-06-11T21:40:03.317Z,17.04
2018-06-11T21:42:31.921Z,16.94
2018-06-11T21:45:00.497Z,16.79
2018-06-11T21:47:29.101Z,17.02
2018-06-11T21:49:57.644Z,17.07
2018-06-11T21:52:26.250Z,17.04
2018-06-11T21:54:54.804Z,16.95
2018-06-11T21:57:24.441Z,16.99
2018-06-11T21:59:56.622Z,16.86
2018-06-11T22:02:25.419Z,16.88
2018-06-11T22:04:54.541Z,16.93
2018-06-11T22:07:23.136Z,16.99
2018-06-11T22:09:51.707Z,16.94
2018-06-11T22:12:20.325Z,16.98
2018-06-11T22:14:48.877Z,16.95
2018-06-11T22:17:17.473Z,16.97
2018-06-11T22:19:46.084Z,16.93
2018-06-11T22:22:14.688Z,16.96
2018-06-11T22:24:43.272Z,16.97
2018-06-11T22:27:11.853Z,16.95
2018-06-11T22:29:40.470Z,16.93
2018-06-11T22:32:09.040Z,16.86
2018-06-11T22:34:37.653Z,16.94
2018-06-11T22:37:06.217Z,16.96
2018-06-11T22:39:34.801Z,16.87
2018-06-11T22:42:03.637Z,16.87
2018-06-11T22:44:32.237Z,16.84
2018-06-11T22:47:00.833Z,16.85
2018-06-11T22:49:29.437Z,16.92
2018-06-11T22:51:58.093Z,16.93
2018-06-11T22:54:26.704Z,16.90
2018-06-11T22:56:55.507Z,16.88
2018-06-11T22:59:24.170Z,16.86
2018-06-11T23:01:52.741Z,16.94
2018-06-11T23:04:21.353Z,16.89
2018-06-11T23:06:49.965Z,16.89
2018-06-11T23:09:18.641Z,16.79
2018-06-11T23:11:47.249Z,16.74
2018-06-11T23:14:15.867Z,16.76
2018-06-11T23:16:44.476Z,16.81
2018-06-11T23:19:13.174Z,16.81
2018-06-11T23:21:41.784Z,16.84
2018-06-11T23:24:10.413Z,16.86
2018-06-11T23:26:39.008Z,16.89
2018-06-11T23:29:07.616Z,16.87
2018-06-11T23:31:36.182Z,16.79
2018-06-11T23:34:05.125Z,16.85
2018-06-11T23:36:33.701Z,16.88
2018-06-11T23:39:02.454Z,16.90
2018-06-11T23:41:31.076Z,16.82
2018-06-11T23:43:59.721Z,16.83
2018-06-11T23:46:28.377Z,16.84
2018-06-11T23:48:57.130Z,16.86
2018-06-11T23:51:25.772Z,16.89
2018-06-11T23:53:54.727Z,16.97
2018-06-11T23:56:23.573Z,16.93
2018-06-11T23:58:52.295Z,16.93
